createdAt,value
2023-02-14T00:00:27.963Z,98996.28
2023-02-14T00:02:54.595Z,98993.72
2023-02-14T00:05:21.014Z,98997.16
2023-02-14T00:07:47.434Z,98999.00
2023-02-14T00:10:13.809Z,98995.41
2023-02-14T00:12:40.162Z,98997.34
2023-02-14T00:15:25.395Z,98987.72
2023-02-14T00:17:56.857Z,98983.94
2023-02-14T00:20:23.767Z,98988.66
2023-02-14T00:22:50.713Z,98989.47
2023-02-14T00:25:17.154Z,98977.09
2023-02-14T00:27:43.556Z,99002.19
2023-02-14T00:30:11.812Z,98990.19
2023-02-14T00:32:39.696Z,98990.50
2023-02-14T00:35:07.573Z,98997.06
2023-02-14T00:37:34.569Z,98995.28
2023-02-14T00:40:01.010Z,98996.50
2023-02-14T00:42:27.496Z,98993.81
2023-02-14T00:44:53.878Z,98980.97
2023-02-14T00:47:20.239Z,98999.53
2023-02-14T00:49:46.598Z,98992.22
2023-02-14T00:52:13.001Z,99000.94
2023-02-14T00:54:39.497Z,99006.06
2023-02-14T00:57:05.830Z,98996.78
2023-02-14T00:59:32.219Z,98992.69
2023-02-14T01:01:58.596Z,98991.88
2023-02-14T01:04:24.958Z,99002.53
2023-02-14T01:06:51.308Z,98995.84
2023-02-14T01:09:17.711Z,98987.81
2023-02-14T01:11:44.141Z,98986.00
2023-02-14T01:14:10.545Z,99004.53
2023-02-14T01:16:38.342Z,98987.59
2023-02-14T01:19:04.736Z,98984.44
2023-02-14T01:21:33.296Z,98983.06
2023-02-14T01:24:04.194Z,98974.03
2023-02-14T01:26:31.407Z,98974.25
2023-02-14T01:28:58.196Z,98978.38
2023-02-14T01:31:30.065Z,98978.00
2023-02-14T01:33:57.532Z,98991.78
2023-02-14T01:36:26.852Z,98976.59
2023-02-14T01:38:57.180Z,98990.81
2023-02-14T01:41:25.511Z,98978.63
2023-02-14T01:43:56.403Z,98978.81
2023-02-14T01:46:23.313Z,98998.31
2023-02-14T01:48:50.992Z,99006.38
2023-02-14T01:51:19.863Z,98989.84
2023-02-14T01:53:47.271Z,98998.31
2023-02-14T01:56:18.910Z,99005.00
2023-02-14T01:58:48.117Z,98991.03
2023-02-14T02:01:17.693Z,98998.31
2023-02-14T02:03:48.980Z,98999.28
2023-02-14T02:06:19.863Z,98984.53
2023-02-14T02:08:57.425Z,98991.00
2023-02-14T02:11:23.834Z,98976.22
2023-02-14T02:13:50.175Z,98990.41
2023-02-14T02:16:31.331Z,98981.13
2023-02-14T02:19:19.492Z,98993.56
2023-02-14T02:22:09.230Z,98990.00
2023-02-14T02:24:52.311Z,98988.41
2023-02-14T02:27:45.594Z,98971.47
2023-02-14T02:30:34.228Z,98958.66
2023-02-14T02:33:12.697Z,98974.00
2023-02-14T02:35:45.183Z,98973.81
2023-02-14T02:38:33.364Z,98978.09
2023-02-14T02:41:09.599Z,98972.59
2023-02-14T02:44:13.135Z,98971.00
2023-02-14T02:46:49.610Z,98976.03
2023-02-14T02:50:01.959Z,98974.69
2023-02-14T02:53:03.414Z,98967.22
2023-02-14T02:56:09.184Z,98973.16
2023-02-14T02:58:40.904Z,98969.25
2023-02-14T03:01:11.926Z,98950.69
2023-02-14T03:03:59.979Z,98958.78
2023-02-14T03:06:26.414Z,98957.56
2023-02-14T03:08:52.769Z,98957.00
2023-02-14T03:11:19.411Z,98959.72
2023-02-14T03:14:07.470Z,98964.44
2023-02-14T03:17:32.945Z,98958.09
2023-02-14T03:20:20.883Z,98960.66
2023-02-14T03:23:04.026Z,98962.66
2023-02-14T03:25:38.946Z,98965.09
2023-02-14T03:28:17.073Z,98954.06
2023-02-14T03:30:47.176Z,98964.75
2023-02-14T03:33:32.888Z,98967.13
2023-02-14T03:36:09.520Z,98964.97
2023-02-14T03:38:51.584Z,98964.22
2023-02-14T03:41:23.020Z,98967.75
2023-02-14T03:43:57.293Z,98971.47
2023-02-14T03:46:42.008Z,98965.97
2023-02-14T03:49:17.480Z,98966.97
2023-02-14T03:51:47.673Z,98969.72
2023-02-14T03:54:17.222Z,98971.66
2023-02-14T03:56:51.877Z,98963.22
2023-02-14T03:59:21.935Z,98955.72
2023-02-14T04:01:56.669Z,98968.16
2023-02-14T04:04:27.336Z,98971.47
2023-02-14T04:06:53.862Z,98961.66
2023-02-14T04:09:20.238Z,98974.06
2023-02-14T04:11:50.251Z,98975.44
2023-02-14T04:14:17.677Z,98979.00
2023-02-14T04:17:02.618Z,98979.00
2023-02-14T04:19:29.020Z,98971.13
2023-02-14T04:21:55.384Z,98965.78
2023-02-14T04:24:21.761Z,98984.72
2023-02-14T04:27:06.418Z,98975.47
2023-02-14T04:29:32.749Z,98969.72
2023-02-14T04:31:59.177Z,98975.06
2023-02-14T04:34:25.747Z,98965.22
2023-02-14T04:36:52.096Z,98969.94
2023-02-14T04:39:18.466Z,98967.97
2023-02-14T04:41:44.806Z,98974.47
2023-02-14T04:44:11.164Z,98969.16
2023-02-14T04:46:37.690Z,98980.19
2023-02-14T04:49:04.068Z,98968.97
2023-02-14T04:51:30.425Z,98983.75
2023-02-14T04:53:56.788Z,98963.84
2023-02-14T04:56:23.145Z,98974.47
2023-02-14T04:58:49.507Z,98977.44
2023-02-14T05:01:15.904Z,98980.38
2023-02-14T05:03:42.296Z,98979.97
2023-02-14T05:06:08.728Z,98982.53
2023-02-14T05:08:35.083Z,98965.41
2023-02-14T05:11:01.767Z,98969.34
2023-02-14T05:13:28.565Z,98969.53
2023-02-14T05:15:55.351Z,98961.28
2023-02-14T05:18:21.736Z,98966.59
2023-02-14T05:20:54.739Z,98968.19
2023-02-14T05:23:22.254Z,98963.44
2023-02-14T05:25:49.779Z,98961.84
2023-02-14T05:28:16.770Z,98950.47
2023-02-14T05:30:43.234Z,98947.88
2023-02-14T05:33:09.654Z,98966.00
2023-02-14T05:35:36.276Z,98966.19
2023-02-14T05:38:02.823Z,98958.09
2023-02-14T05:40:29.298Z,98963.03
2023-02-14T05:42:55.936Z,98965.00
2023-02-14T05:45:23.166Z,98946.69
2023-02-14T05:47:50.032Z,98965.78
2023-02-14T05:50:17.642Z,98947.69
2023-02-14T05:52:44.195Z,98956.53
2023-02-14T05:55:10.774Z,98947.06
2023-02-14T05:57:37.334Z,98961.66
2023-02-14T06:00:06.486Z,98947.47
2023-02-14T06:02:33.199Z,98956.31
2023-02-14T06:04:59.627Z,98937.63
2023-02-14T06:07:26.009Z,98944.88
2023-02-14T06:09:52.395Z,98955.13
2023-02-14T06:12:18.757Z,98935.41
2023-02-14T06:14:45.215Z,98945.63
2023-02-14T06:17:11.911Z,98931.84
2023-02-14T06:19:38.298Z,98938.78
2023-02-14T06:22:04.772Z,98936.34
2023-02-14T06:24:31.136Z,98944.22
2023-02-14T06:26:59.148Z,98949.56
2023-02-14T06:29:25.682Z,98952.56
2023-02-14T06:31:52.202Z,98955.13
2023-02-14T06:34:18.727Z,98950.00
2023-02-14T06:36:45.080Z,98940.94
2023-02-14T06:39:11.534Z,98957.66
2023-02-14T06:41:37.985Z,98958.22
2023-02-14T06:44:04.548Z,98946.06
2023-02-14T06:46:31.010Z,98953.31
2023-02-14T06:48:57.386Z,98968.31
2023-02-14T06:51:23.733Z,98960.66
2023-02-14T06:53:50.077Z,98971.91
2023-02-14T06:56:16.473Z,98974.06
2023-02-14T06:58:42.855Z,98958.09
2023-02-14T07:01:09.323Z,98947.09
2023-02-14T07:03:35.699Z,98966.00
2023-02-14T07:06:02.135Z,98958.31
2023-02-14T07:08:28.575Z,98954.59
2023-02-14T07:10:58.730Z,98964.63
2023-02-14T07:13:25.691Z,98970.94
2023-02-14T07:15:52.122Z,98970.94
2023-02-14T07:18:18.543Z,98964.03
2023-02-14T07:20:45.502Z,98963.63
2023-02-14T07:23:11.905Z,98968.75
2023-02-14T07:25:38.453Z,98973.69
2023-02-14T07:28:04.935Z,98973.69
2023-02-14T07:30:31.424Z,98969.31
2023-02-14T07:32:58.268Z,98975.25
2023-02-14T07:35:24.872Z,98961.25
2023-02-14T07:37:51.594Z,98969.72
2023-02-14T07:40:18.465Z,98965.38
2023-02-14T07:42:44.819Z,98972.66
2023-02-14T07:45:21.121Z,98967.50
2023-02-14T07:47:52.688Z,98951.72
2023-02-14T07:50:20.348Z,98961.56
2023-02-14T07:52:47.237Z,98960.94
2023-02-14T07:55:14.172Z,98960.53
2023-02-14T07:57:40.538Z,98965.44
2023-02-14T08:00:08.062Z,98976.66
2023-02-14T08:02:35.664Z,98978.22
2023-02-14T08:05:02.069Z,98983.53
2023-02-14T08:07:28.472Z,98977.41
2023-02-14T08:09:54.828Z,98979.00
2023-02-14T08:12:39.672Z,98961.66
2023-02-14T08:15:24.954Z,98975.66
2023-02-14T08:17:51.318Z,98973.28
2023-02-14T08:20:17.796Z,98976.47
2023-02-14T08:22:44.189Z,98971.94
2023-02-14T08:25:10.529Z,98974.28
2023-02-14T08:27:36.887Z,98949.66
2023-02-14T08:30:03.517Z,98968.03
2023-02-14T08:32:30.020Z,98960.75
2023-02-14T08:34:56.461Z,98961.31
2023-02-14T08:37:22.834Z,98949.53
2023-02-14T08:39:49.335Z,98949.53
2023-02-14T08:42:15.715Z,98951.31
2023-02-14T08:44:42.095Z,98961.81
2023-02-14T08:47:08.550Z,98947.81
2023-02-14T08:49:34.971Z,98946.03
2023-02-14T08:52:01.398Z,98961.59
2023-02-14T08:54:27.776Z,98961.00
2023-02-14T08:56:54.156Z,98958.47
2023-02-14T08:59:20.544Z,98968.13
2023-02-14T09:01:46.918Z,98966.94
2023-02-14T09:04:13.442Z,98963.56
2023-02-14T09:06:40.002Z,98967.72
2023-02-14T09:09:07.201Z,98974.03
2023-02-14T09:11:34.679Z,98975.81
2023-02-14T09:14:01.198Z,98975.81
2023-02-14T09:16:27.695Z,98959.06
2023-02-14T09:18:54.723Z,98975.81
2023-02-14T09:21:23.977Z,98970.31
2023-02-14T09:23:50.639Z,98972.47
2023-02-14T09:26:17.624Z,98970.88
2023-02-14T09:28:44.743Z,98966.97
2023-02-14T09:31:20.471Z,98962.06
2023-02-14T09:33:48.117Z,98953.38
2023-02-14T09:36:33.481Z,98964.22
2023-02-14T09:38:59.898Z,98960.88
2023-02-14T09:41:29.390Z,98964.03
2023-02-14T09:43:59.336Z,98946.13
2023-02-14T09:46:27.565Z,98951.44
2023-02-14T09:48:55.088Z,98958.72
2023-02-14T09:51:25.770Z,98959.91
2023-02-14T09:54:05.745Z,98967.38
2023-02-14T09:56:51.655Z,98960.50
2023-02-14T09:59:43.219Z,98952.03
2023-02-14T10:02:34.885Z,98958.91
2023-02-14T10:05:15.095Z,98959.31
2023-02-14T10:08:15.836Z,98962.47
2023-02-14T10:10:46.200Z,98956.16
2023-02-14T10:13:36.505Z,98961.69
2023-02-14T10:16:22.256Z,98963.84
2023-02-14T10:19:03.883Z,98955.38
2023-02-14T10:21:42.591Z,98966.97
2023-02-14T10:24:20.440Z,98964.03
2023-02-14T10:26:49.328Z,98962.88
2023-02-14T10:29:18.434Z,98961.84
2023-02-14T10:31:55.750Z,98942.94
2023-02-14T10:34:50.953Z,98943.75
2023-02-14T10:37:38.363Z,98962.06
2023-02-14T10:40:23.640Z,98960.69
2023-02-14T10:42:58.330Z,98956.16
2023-02-14T10:46:03.539Z,98945.31
2023-02-14T10:48:38.131Z,98934.88
2023-02-14T10:51:32.727Z,98938.03
2023-02-14T10:54:19.041Z,98925.41
2023-02-14T10:57:03.606Z,98932.91
2023-02-14T10:59:50.508Z,98932.31
2023-02-14T11:02:20.364Z,98918.69
2023-02-14T11:04:48.176Z,98914.97
2023-02-14T11:07:21.220Z,98924.41
2023-02-14T11:09:47.801Z,98923.22
2023-02-14T11:12:32.485Z,98915.75
2023-02-14T11:15:20.404Z,98917.72
2023-02-14T11:17:47.115Z,98916.94
2023-02-14T11:20:19.906Z,98913.38
2023-02-14T11:22:46.679Z,98907.25
2023-02-14T11:25:23.438Z,98907.41
2023-02-14T11:27:55.727Z,98912.16
2023-02-14T11:30:25.806Z,98905.28
2023-02-14T11:32:55.125Z,98907.03
2023-02-14T11:35:26.925Z,98908.38
2023-02-14T11:37:56.316Z,98897.34
2023-02-14T11:40:39.238Z,98902.63
2023-02-14T11:43:14.320Z,98905.22
2023-02-14T11:45:43.440Z,98890.25
2023-02-14T11:48:37.371Z,98898.16
2023-02-14T11:51:15.566Z,98881.03
2023-02-14T11:53:46.304Z,98884.13
2023-02-14T11:56:14.992Z,98885.34
2023-02-14T11:58:47.706Z,98884.97
2023-02-14T12:01:24.309Z,98886.69
2023-02-14T12:03:52.569Z,98872.91
2023-02-14T12:06:31.570Z,98865.66
2023-02-14T12:09:11.194Z,98876.09
2023-02-14T12:11:37.951Z,98863.84
2023-02-14T12:14:05.769Z,98873.47
2023-02-14T12:17:18.736Z,98867.59
2023-02-14T12:20:11.850Z,98866.00
2023-02-14T12:22:55.399Z,98868.69
2023-02-14T12:25:27.210Z,98863.56
2023-02-14T12:28:05.329Z,98848.38
2023-02-14T12:30:34.984Z,98847.06
2023-02-14T12:33:01.950Z,98854.16
2023-02-14T12:35:53.522Z,98843.28
2023-02-14T12:38:39.369Z,98848.00
2023-02-14T12:41:22.538Z,98842.53
2023-02-14T12:43:53.305Z,98830.94
2023-02-14T12:47:08.229Z,98839.78
2023-02-14T12:50:03.679Z,98836.03
2023-02-14T12:53:03.322Z,98826.81
2023-02-14T12:55:43.938Z,98831.91
2023-02-14T12:58:33.434Z,98827.44
2023-02-14T13:01:50.622Z,98823.69
2023-02-14T13:04:53.375Z,98826.03
2023-02-14T13:07:42.274Z,98814.97
2023-02-14T13:10:22.461Z,98813.72
2023-02-14T13:13:00.913Z,98816.44
2023-02-14T13:16:02.703Z,98810.91
2023-02-14T13:18:29.022Z,98819.41
2023-02-14T13:21:04.780Z,98799.31
2023-02-14T13:23:42.029Z,98815.06
2023-02-14T13:26:25.369Z,98799.91
2023-02-14T13:29:12.811Z,98813.09
2023-02-14T13:31:40.541Z,98797.19
2023-02-14T13:34:16.804Z,98801.94
2023-02-14T13:36:44.202Z,98795.03
2023-02-14T13:39:25.049Z,98794.81
2023-02-14T13:41:51.593Z,98785.19
2023-02-14T13:44:45.952Z,98787.69
2023-02-14T13:47:26.299Z,98786.66
2023-02-14T13:49:59.969Z,98782.84
2023-02-14T13:52:40.037Z,98764.75
2023-02-14T13:55:09.939Z,98775.59
2023-02-14T13:57:38.629Z,98771.13
2023-02-14T14:00:35.085Z,98765.41
2023-02-14T14:03:01.893Z,98759.25
2023-02-14T14:05:35.458Z,98775.47
2023-02-14T14:08:20.130Z,98780.22
2023-02-14T14:10:48.103Z,98782.50
2023-02-14T14:13:42.306Z,98782.13
2023-02-14T14:16:24.389Z,98778.63
2023-02-14T14:18:56.847Z,98769.16
2023-02-14T14:21:27.683Z,98779.34
2023-02-14T14:24:12.220Z,98775.19
2023-02-14T14:26:47.750Z,98772.69
2023-02-14T14:29:43.470Z,98780.78
2023-02-14T14:32:18.083Z,98770.78
2023-02-14T14:34:56.551Z,98762.13
2023-02-14T14:37:26.162Z,98758.22
2023-02-14T14:39:55.190Z,98758.53
2023-02-14T14:42:25.228Z,98743.16
2023-02-14T14:44:57.322Z,98760.53
2023-02-14T14:47:27.213Z,98750.91
2023-02-14T14:49:58.872Z,98742.44
2023-02-14T14:52:41.193Z,98760.59
2023-02-14T14:55:14.848Z,98745.06
2023-02-14T14:57:49.409Z,98763.97
2023-02-14T15:00:27.208Z,98750.00
2023-02-14T15:03:14.920Z,98750.19
2023-02-14T15:05:44.626Z,98734.66
2023-02-14T15:08:22.126Z,98748.25
2023-02-14T15:10:54.254Z,98748.66
2023-02-14T15:13:49.216Z,98734.66
2023-02-14T15:16:38.323Z,98737.44
2023-02-14T15:19:12.444Z,98733.28
2023-02-14T15:21:44.226Z,98735.22
2023-02-14T15:24:14.560Z,98729.78
2023-02-14T15:26:43.768Z,98742.31
2023-02-14T15:29:28.836Z,98729.41
2023-02-14T15:31:58.133Z,98726.28
2023-02-14T15:34:32.389Z,98736.69
2023-02-14T15:37:03.858Z,98729.97
2023-02-14T15:39:36.826Z,98726.84
2023-02-14T15:42:05.865Z,98727.25
2023-02-14T15:44:32.750Z,98729.41
2023-02-14T15:47:03.509Z,98709.56
2023-02-14T15:49:40.824Z,98731.41
2023-02-14T15:52:07.821Z,98721.97
2023-02-14T15:54:41.615Z,98725.50
2023-02-14T15:57:21.349Z,98722.00
2023-02-14T15:59:48.786Z,98726.50
2023-02-14T16:02:37.806Z,98724.75
2023-02-14T16:05:22.073Z,98726.69
2023-02-14T16:08:26.439Z,98729.03
2023-02-14T16:11:14.451Z,98723.34
2023-02-14T16:13:43.858Z,98714.50
2023-02-14T16:16:12.292Z,98722.38
2023-02-14T16:18:44.014Z,98729.47
2023-02-14T16:21:24.081Z,98720.03
2023-02-14T16:24:05.485Z,98717.06
2023-02-14T16:26:33.090Z,98708.81
2023-02-14T16:29:02.650Z,98719.81
2023-02-14T16:31:29.531Z,98715.88
2023-02-14T16:33:56.015Z,98700.38
2023-02-14T16:36:28.910Z,98716.09
2023-02-14T16:38:56.247Z,98705.91
2023-02-14T16:41:27.885Z,98720.25
2023-02-14T16:43:55.180Z,98718.88
2023-02-14T16:46:32.515Z,98725.38
2023-02-14T16:48:59.157Z,98728.16
2023-02-14T16:51:32.269Z,98715.94
2023-02-14T16:54:02.606Z,98725.00
2023-02-14T16:56:31.587Z,98736.41
2023-02-14T16:58:58.316Z,98720.09
2023-02-14T17:01:25.621Z,98727.34
2023-02-14T17:03:51.986Z,98731.09
2023-02-14T17:06:22.904Z,98729.13
2023-02-14T17:08:52.118Z,98732.47
2023-02-14T17:11:19.357Z,98718.13
2023-02-14T17:13:47.522Z,98720.28
2023-02-14T17:16:16.399Z,98720.28
2023-02-14T17:18:48.677Z,98737.56
2023-02-14T17:21:19.306Z,98721.03
2023-02-14T17:23:45.675Z,98723.19
2023-02-14T17:26:12.032Z,98726.78
2023-02-14T17:28:38.395Z,98729.69
2023-02-14T17:31:05.105Z,98742.28
2023-02-14T17:33:32.914Z,98746.81
2023-02-14T17:36:07.122Z,98735.22
2023-02-14T17:38:34.822Z,98733.06
2023-02-14T17:41:29.255Z,98731.06
2023-02-14T17:44:00.146Z,98744.22
2023-02-14T17:46:28.899Z,98733.63
2023-02-14T17:48:55.791Z,98731.47
2023-02-14T17:51:22.202Z,98751.94
2023-02-14T17:53:49.783Z,98738.56
2023-02-14T17:56:20.471Z,98747.78
2023-02-14T17:58:48.441Z,98740.94
2023-02-14T18:01:17.788Z,98747.78
2023-02-14T18:03:44.659Z,98727.31
2023-02-14T18:06:11.926Z,98724.19
2023-02-14T18:08:49.224Z,98713.94
2023-02-14T18:11:18.122Z,98731.28
2023-02-14T18:13:44.528Z,98730.09
2023-02-14T18:16:14.542Z,98729.13
2023-02-14T18:18:41.344Z,98727.94
2023-02-14T18:21:10.515Z,98724.00
2023-02-14T18:23:37.421Z,98719.66
2023-02-14T18:26:06.927Z,98722.41
2023-02-14T18:28:34.576Z,98721.41
2023-02-14T18:31:10.079Z,98722.00
2023-02-14T18:33:36.759Z,98711.38
2023-02-14T18:36:07.068Z,98710.41
2023-02-14T18:38:34.584Z,98706.81
2023-02-14T18:41:10.046Z,98702.09
2023-02-14T18:43:37.074Z,98684.22
2023-02-14T18:46:08.184Z,98693.63
2023-02-14T18:48:35.295Z,98690.91
2023-02-14T18:51:10.005Z,98688.94
2023-02-14T18:53:39.981Z,98691.47
2023-02-14T18:56:08.860Z,98676.16
2023-02-14T18:58:35.801Z,98692.72
2023-02-14T19:01:23.963Z,98689.75
2023-02-14T19:03:52.739Z,98693.66
2023-02-14T19:06:19.432Z,98695.22
2023-02-14T19:08:46.295Z,98682.25
2023-02-14T19:11:14.998Z,98680.81
2023-02-14T19:13:45.931Z,98687.50
2023-02-14T19:16:15.495Z,98683.94
2023-02-14T19:18:41.955Z,98678.38
2023-02-14T19:21:16.558Z,98680.78
2023-02-14T19:23:43.542Z,98670.41
2023-02-14T19:26:22.064Z,98682.41
2023-02-14T19:28:50.450Z,98673.56
2023-02-14T19:31:17.082Z,98668.59
2023-02-14T19:33:45.523Z,98682.00
2023-02-14T19:36:13.970Z,98685.56
2023-02-14T19:38:42.565Z,98680.81
2023-02-14T19:41:31.034Z,98678.03
2023-02-14T19:43:59.024Z,98677.41
2023-02-14T19:46:27.638Z,98665.06
2023-02-14T19:48:56.061Z,98674.28
2023-02-14T19:51:25.729Z,98669.31
2023-02-14T19:53:52.703Z,98655.38
2023-02-14T19:56:22.185Z,98650.44
2023-02-14T19:58:50.150Z,98660.13
2023-02-14T20:01:27.164Z,98640.44
2023-02-14T20:03:53.629Z,98649.63
2023-02-14T20:06:21.577Z,98638.47
2023-02-14T20:08:48.255Z,98639.63
2023-02-14T20:11:26.417Z,98639.47
2023-02-14T20:13:55.004Z,98623.13
2023-02-14T20:16:23.018Z,98618.41
2023-02-14T20:18:49.443Z,98616.25
2023-02-14T20:21:24.398Z,98626.09
2023-02-14T20:24:18.480Z,98627.63
2023-02-14T20:26:45.620Z,98621.75
2023-02-14T20:29:12.051Z,98612.09
2023-02-14T20:31:42.461Z,98620.19
2023-02-14T20:34:09.359Z,98622.94
2023-02-14T20:36:35.857Z,98614.31
2023-02-14T20:39:05.464Z,98629.47
2023-02-14T20:41:34.445Z,98616.59
2023-02-14T20:44:09.996Z,98616.25
2023-02-14T20:46:36.524Z,98616.63
2023-02-14T20:49:03.810Z,98608.97
2023-02-14T20:51:30.171Z,98612.66
2023-02-14T20:53:56.788Z,98607.53
2023-02-14T20:56:26.150Z,98615.38
2023-02-14T20:58:52.545Z,98614.00
2023-02-14T21:01:21.094Z,98603.84
2023-02-14T21:03:50.797Z,98597.75
2023-02-14T21:06:19.283Z,98594.25
2023-02-14T21:08:46.635Z,98582.81
2023-02-14T21:11:15.871Z,98594.06
2023-02-14T21:13:42.284Z,98591.28
2023-02-14T21:16:15.376Z,98601.50
2023-02-14T21:18:44.323Z,98598.97
2023-02-14T21:21:18.656Z,98590.50
2023-02-14T21:23:45.061Z,98581.91
2023-02-14T21:26:11.427Z,98574.78
2023-02-14T21:28:37.773Z,98573.63
2023-02-14T21:31:05.309Z,98585.63
2023-02-14T21:33:32.821Z,98586.81
2023-02-14T21:36:07.615Z,98584.66
2023-02-14T21:38:34.635Z,98566.03
2023-02-14T21:41:04.823Z,98563.09
2023-02-14T21:43:34.591Z,98580.19
2023-02-14T21:46:10.342Z,98578.06
2023-02-14T21:48:55.328Z,98571.56
2023-02-14T21:51:22.152Z,98577.44
2023-02-14T21:53:49.231Z,98568.25
2023-02-14T21:56:19.612Z,98573.34
2023-02-14T21:58:52.348Z,98565.31
2023-02-14T22:01:20.282Z,98570.03
2023-02-14T22:03:47.233Z,98576.94
2023-02-14T22:06:13.887Z,98568.69
2023-02-14T22:08:40.814Z,98577.31
2023-02-14T22:11:11.150Z,98569.81
2023-02-14T22:13:37.625Z,98557.66
2023-02-14T22:16:07.095Z,98564.19
2023-02-14T22:18:33.696Z,98556.75
2023-02-14T22:21:01.826Z,98569.91
2023-02-14T22:23:35.554Z,98565.19
2023-02-14T22:26:11.026Z,98571.47
2023-02-14T22:28:37.377Z,98559.13
2023-02-14T22:31:04.350Z,98566.34
2023-02-14T22:33:31.138Z,98544.56
2023-02-14T22:36:00.571Z,98565.16
2023-02-14T22:38:27.779Z,98561.28
2023-02-14T22:40:54.588Z,98552.06
2023-02-14T22:43:21.982Z,98551.44
2023-02-14T22:45:49.139Z,98556.34
2023-02-14T22:48:17.686Z,98557.53
2023-02-14T22:50:44.242Z,98561.84
2023-02-14T22:53:10.663Z,98554.00
2023-02-14T22:55:37.071Z,98556.72
2023-02-14T22:58:03.468Z,98530.81
2023-02-14T23:00:29.816Z,98553.16
2023-02-14T23:02:56.384Z,98555.38
2023-02-14T23:05:23.816Z,98545.72
2023-02-14T23:07:50.196Z,98537.25
2023-02-14T23:10:16.596Z,98555.72
2023-02-14T23:13:01.630Z,98548.28
2023-02-14T23:15:46.455Z,98535.31
2023-02-14T23:18:31.682Z,98544.34
2023-02-14T23:21:16.550Z,98537.03
2023-02-14T23:23:42.916Z,98538.22
2023-02-14T23:26:09.279Z,98528.78
2023-02-14T23:28:35.702Z,98532.09
2023-02-14T23:31:02.457Z,98544.28
2023-02-14T23:33:28.844Z,98546.41
2023-02-14T23:35:55.222Z,98534.25
2023-02-14T23:38:21.598Z,98538.22
2023-02-14T23:41:06.502Z,98524.88
2023-02-14T23:43:32.879Z,98527.66
2023-02-14T23:46:00.179Z,98545.13
2023-02-14T23:48:26.818Z,98535.44
2023-02-14T23:50:53.178Z,98520.94
2023-02-14T23:53:19.573Z,98527.25
2023-02-14T23:55:45.924Z,98540.16
2023-02-14T23:58:12.284Z,98528.41
